JAL296 OMDB-RJTT
Flight info
| Callsign | JAL296 |
|---|---|
| Flight time | N/A |
| Altitude | 33000 |
| Route | DAVMO M318 KHM A453 ZDN G452 KALAT G325 PS DCT 3423N07217E 3431N07321E DCT KAGLO J186 KAPMI J129 GOTKO G325 PURPA/K0917S1010 W112 HTN/K0904S1070 W112 TUSLI W187 IBANO B215 NUKTI W66 DKO W69 GUVBA/K0885S1130 W69 HUR B339 LADIX W34 VAPGU W100 ORAVA W201 UNSEK A326 DONVO G597 AGAVO/N0487F370 Y644 EGOBA G597 LANAT Y71 XAC |
| Aircraft | B77W/H-SDE1E2E3FGHIJ2J3J4J5M1RWXY/LB1D1 |
Departure
| Time | 2026-04-23 11:53 |
|---|---|
| Airport | Dubai International Airport (OMDB) |
Arrival
| Time | N/A |
|---|---|
| Airport | Tokyo Haneda International Airport (RJTT) |
| Time | Latitude | Longitude | Altitude | Speed | Heading |
|---|---|---|---|---|---|
| 2026-04-23 11:21 | 25.24281 | 55.37103 | 27 ft | 0 kts | 31° |
| 2026-04-23 11:41 | 25.24271 | 55.37096 | 32 ft | 4 kts | 31° |
| 2026-04-23 11:41 | 25.24248 | 55.37080 | 33 ft | 4 kts | 31° |
| 2026-04-23 11:41 | 25.24228 | 55.37067 | 31 ft | 4 kts | 34° |
| 2026-04-23 11:42 | 25.24211 | 55.37047 | 31 ft | 4 kts | 76° |
| 2026-04-23 11:42 | 25.24212 | 55.37020 | 31 ft | 4 kts | 113° |
| 2026-04-23 11:42 | 25.24224 | 55.36995 | 31 ft | 4 kts | 122° |
| 2026-04-23 11:42 | 25.24239 | 55.36970 | 31 ft | 4 kts | 122° |
| 2026-04-23 11:43 | 25.24246 | 55.36957 | 30 ft | 2 kts | 122° |
| 2026-04-23 11:46 | 25.24243 | 55.36961 | 31 ft | 2 kts | 122° |
| 2026-04-23 11:46 | 25.24219 | 55.37004 | 31 ft | 9 kts | 122° |
| 2026-04-23 11:46 | 25.24188 | 55.37061 | 29 ft | 9 kts | 122° |
| 2026-04-23 11:46 | 25.24156 | 55.37118 | 29 ft | 9 kts | 122° |
| 2026-04-23 11:47 | 25.24107 | 55.37206 | 28 ft | 12 kts | 122° |
| 2026-04-23 11:47 | 25.24061 | 55.37287 | 28 ft | 14 kts | 122° |
| 2026-04-23 11:47 | 25.24007 | 55.37384 | 29 ft | 15 kts | 122° |
| 2026-04-23 11:47 | 25.23967 | 55.37490 | 27 ft | 15 kts | 95° |
| 2026-04-23 11:48 | 25.24004 | 55.37594 | 27 ft | 15 kts | 45° |
| 2026-04-23 11:48 | 25.24085 | 55.37655 | 28 ft | 13 kts | 32° |
| 2026-04-23 11:48 | 25.24165 | 55.37709 | 29 ft | 13 kts | 31° |
| 2026-04-23 11:48 | 25.24243 | 55.37762 | 29 ft | 13 kts | 31° |
| 2026-04-23 11:49 | 25.24321 | 55.37815 | 26 ft | 13 kts | 33° |
| 2026-04-23 11:49 | 25.24396 | 55.37871 | 28 ft | 13 kts | 34° |
| 2026-04-23 11:49 | 25.24466 | 55.37924 | 29 ft | 11 kts | 34° |
| 2026-04-23 11:49 | 25.24530 | 55.37972 | 29 ft | 11 kts | 34° |
| 2026-04-23 11:50 | 25.24594 | 55.38020 | 28 ft | 11 kts | 33° |
| 2026-04-23 11:50 | 25.24626 | 55.38043 | 28 ft | 0 kts | 32° |
| 2026-04-23 11:50 | 25.24634 | 55.38048 | 28 ft | 5 kts | 32° |
| 2026-04-23 11:51 | 25.24683 | 55.38082 | 31 ft | 9 kts | 32° |
| 2026-04-23 11:51 | 25.24741 | 55.38103 | 31 ft | 9 kts | 353° |
| 2026-04-23 11:51 | 25.24787 | 55.38058 | 30 ft | 9 kts | 301° |
| 2026-04-23 11:51 | 25.24837 | 55.37969 | 30 ft | 23 kts | 301° |
| 2026-04-23 11:52 | 25.25019 | 55.37644 | 31 ft | 80 kts | 302° |
| 2026-04-23 11:52 | 25.25412 | 55.36934 | 30 ft | 135 kts | 301° |
| 2026-04-23 11:52 | 25.25985 | 55.35902 | 30 ft | 179 kts | 301° |
| 2026-04-23 11:52 | 25.26608 | 55.34732 | 492 ft | 167 kts | 304° |
| 2026-04-23 11:53 | 25.27197 | 55.33609 | 827 ft | 175 kts | 304° |
| 2026-04-23 11:53 | 25.27957 | 55.32526 | 1018 ft | 181 kts | 313° |
| 2026-04-23 11:53 | 25.28706 | 55.31410 | 1435 ft | 184 kts | 304° |
| 2026-04-23 11:53 | 25.29392 | 55.30176 | 1661 ft | 194 kts | 314° |
| 2026-04-23 11:54 | 25.30572 | 55.29490 | 1737 ft | 200 kts | 360° |
| 2026-04-23 11:54 | 25.31907 | 55.29960 | 1886 ft | 211 kts | 32° |
| 2026-04-23 11:54 | 25.33192 | 55.30846 | 2060 ft | 232 kts | 30° |
| 2026-04-23 11:54 | 25.34599 | 55.31814 | 2377 ft | 246 kts | 30° |
| 2026-04-23 11:55 | 25.36087 | 55.32836 | 2719 ft | 258 kts | 31° |
| 2026-04-23 11:55 | 25.37656 | 55.33901 | 3107 ft | 270 kts | 30° |
| 2026-04-23 11:55 | 25.39301 | 55.35000 | 3538 ft | 281 kts | 30° |
| 2026-04-23 11:55 | 25.40983 | 55.36113 | 4128 ft | 284 kts | 30° |
| 2026-04-23 11:56 | 25.42689 | 55.37231 | 4718 ft | 287 kts | 30° |
| 2026-04-23 11:56 | 25.44430 | 55.38363 | 5263 ft | 292 kts | 29° |
| 2026-04-23 11:56 | 25.46197 | 55.39506 | 5787 ft | 296 kts | 30° |
| 2026-04-23 11:56 | 25.47982 | 55.40657 | 6374 ft | 299 kts | 30° |
| 2026-04-23 11:57 | 25.49787 | 55.41819 | 6929 ft | 301 kts | 30° |
| 2026-04-23 11:57 | 25.51604 | 55.42986 | 7509 ft | 303 kts | 30° |
| 2026-04-23 11:57 | 25.53437 | 55.44164 | 8058 ft | 306 kts | 29° |
| 2026-04-23 11:57 | 25.55286 | 55.45352 | 8621 ft | 308 kts | 29° |
| 2026-04-23 11:58 | 25.57151 | 55.46550 | 9164 ft | 311 kts | 28° |
| 2026-04-23 11:58 | 25.59030 | 55.47756 | 9733 ft | 313 kts | 28° |
| 2026-04-23 11:58 | 25.60930 | 55.48976 | 10223 ft | 318 kts | 28° |
| 2026-04-23 11:58 | 25.62896 | 55.50239 | 10402 ft | 337 kts | 28° |
| 2026-04-23 11:59 | 25.64981 | 55.51578 | 10576 ft | 356 kts | 29° |
| 2026-04-23 11:59 | 25.67185 | 55.52994 | 10724 ft | 376 kts | 29° |
| 2026-04-23 11:59 | 25.69504 | 55.54486 | 10908 ft | 394 kts | 29° |
| 2026-04-23 11:59 | 25.71912 | 55.56037 | 11307 ft | 405 kts | 29° |
| 2026-04-23 12:00 | 25.74372 | 55.57623 | 11833 ft | 413 kts | 29° |
| 2026-04-23 12:00 | 25.76794 | 55.59186 | 12513 ft | 416 kts | 29° |
| 2026-04-23 12:00 | 25.78278 | 55.60143 | 12936 ft | 419 kts | 29° |